Ina Lehmann — V2GZ2 — position and weather

sailwx.info

Track history (hours):
 
Tides and Currents Weather Stations Pressure Air Temp Water Temp Dewpoint Dewpoint Depression Visibility Wind Speed Wind Dir Waves Ship Positions

Ina Lehmann

Last reported at 2017-Oct-20 01:00 UTC. Time now 2017-Oct-20 14:29 UTC.
Position N 56°42' E 017°16'.

Length 90 m; draft 4.9 m.

Type: Cargo ship. MMSI: 304585000.

Date/timePositionNaut miles runAvg speedWind from/ knotsBaromVisibWave heightAir tempDewpointWater temp
2017-Oct-20 01:00N 56°42' E 017°16'2510.6
2017-Oct-19 22:41N 56°19' E 016°59'210.6
2017-Oct-19 22:30N 56°18' E 016°58'1410.5
2017-Oct-19 21:11N 56°05' E 016°49'310.2
2017-Oct-19 20:55N 56°04' E 016°45'410.2
2017-Oct-19 20:30N 56°02' E 016°38'510.2
2017-Oct-19 20:00N 55°59' E 016°30'5 9.9
2017-Oct-19 19:30N 55°57' E 016°22'5 9.8
2017-Oct-19 19:00N 55°54' E 016°15'5 9.8
2017-Oct-19 18:31N 55°52' E 016°07'5 9.5
2017-Oct-19 18:00N 55°50' E 015°60'5 9.7
2017-Oct-19 17:30N 55°47' E 015°52'5 9.7
2017-Oct-19 17:00N 55°45' E 015°45'510.0
2017-Oct-19 16:30N 55°43' E 015°37'5 9.9
2017-Oct-19 16:00N 55°40' E 015°29'5 9.9
2017-Oct-19 15:30N 55°38' E 015°21'5 9.8
2017-Oct-19 15:00N 55°36' E 015°14'510.0
2017-Oct-19 14:30N 55°33' E 015°06'1810.3
2017-Oct-19 12:45N 55°24' E 014°39'310.3
2017-Oct-19 12:29N 55°22' E 014°36'810.3
2017-Oct-19 11:44N 55°16' E 014°27'510.5
2017-Oct-19 11:16N 55°12' E 014°21'310.6
2017-Oct-19 10:58N 55°09' E 014°18'5010.6
2017-Oct-19 06:17N 54°48' E 012°59'310.9
2017-Oct-19 06:00N 54°48' E 012°54'510.9
2017-Oct-19 05:30N 54°46' E 012°45'1411.4
2017-Oct-19 04:17N 54°38' E 012°25'311.6
2017-Oct-19 04:00N 54°36' E 012°21'510.8
2017-Oct-19 03:30N 54°31' E 012°16'611.3
2017-Oct-19 03:00N 54°26' E 012°12'510.0
2017-Oct-19 02:31N 54°25' E 012°04'510.6
2017-Oct-19 02:00N 54°25' E 011°55'73 8.1
2017-Oct-18 17:00N 54°22' E 009°50'4 8.3
2017-Oct-18 16:30N 54°20' E 009°44'4 7.9
2017-Oct-18 16:00N 54°17' E 009°39'4 8.4
2017-Oct-18 15:30N 54°13' E 009°36'4 8.6
2017-Oct-18 15:00N 54°11' E 009°30'8 7.6
2017-Oct-18 13:56N 54°05' E 009°20'4 8.6
2017-Oct-18 13:30N 54°02' E 009°18'4 8.1
2017-Oct-18 13:00N 53°58' E 009°15'4 8.7
2017-Oct-18 12:30N 53°55' E 009°11'2 3.3
2017-Oct-18 12:00N 53°54' E 009°09'1 2.0
2017-Oct-18 11:30N 53°53' E 009°07'1 1.6
2017-Oct-18 11:00N 53°53' E 009°06'0 0.0
2017-Oct-18 10:30N 53°53' E 009°06'0 0.1
2017-Oct-18 10:01N 53°53' E 009°06'5 9.3
2017-Oct-18 09:30N 53°51' E 008°59'714.3
2017-Oct-18 09:01N 53°51' E 008°47'713.8
2017-Oct-18 08:30N 53°56' E 008°39'714.0
2017-Oct-18 07:59N 53°59' E 008°28'12410.5
2017-Oct-17 20:08N 53°29' E 005°04'111.0
2017-Oct-17 20:00N 53°28' E 005°02'611.1
2017-Oct-17 19:29N 53°26' E 004°53'5710.9
2017-Oct-17 14:17N 52°39' E 003°58'611.8
2017-Oct-17 13:47N 52°35' E 003°52'711.9
2017-Oct-17 13:15N 52°31' E 003°44'312.0
2017-Oct-17 12:59N 52°29' E 003°40'812.1
2017-Oct-17 12:18N 52°23' E 003°30'412.2
2017-Oct-17 11:59N 52°20' E 003°26'1312.2
2017-Oct-17 10:57N 52°10' E 003°13'1911.3
2017-Oct-17 09:15N 51°57' E 002°50'22 9.4
2017-Oct-17 06:55N 51°47' E 002°18'4 9.7
2017-Oct-17 06:27N 51°45' E 002°13'4 9.6
2017-Oct-17 06:00N 51°42' E 002°07'5 9.7
2017-Oct-17 05:30N 51°40' E 002°00'5 9.8
2017-Oct-17 05:00N 51°37' E 001°54'510.7
2017-Oct-17 04:30N 51°34' E 001°46'611.1
2017-Oct-17 04:00N 51°31' E 001°39'611.1
2017-Oct-17 03:30N 51°29' E 001°31'612.4
2017-Oct-17 03:00N 51°28' E 001°21'612.7
2017-Oct-17 02:30N 51°29' E 001°11'612.4
2017-Oct-17 02:00N 51°29' E 001°01'5 0.1
2017-Oct-15 08:36N 51°30' E 000°53'111.2
2017-Oct-15 08:29N 51°30' E 000°55'3 4.9
2017-Oct-15 07:58N 51°31' E 000°59'0 0.1
2017-Oct-15 07:30N 51°31' E 000°59'0 0.0
2017-Oct-15 06:52N 51°31' E 000°59'0 0.0
2017-Oct-15 06:30N 51°31' E 000°59'0 0.0
2017-Oct-15 05:58N 51°31' E 000°59'0 0.0
2017-Oct-15 05:30N 51°31' E 000°59'0 0.0
2017-Oct-15 04:59N 51°31' E 000°59'0 0.0
2017-Oct-15 04:29N 51°31' E 000°59'0 0.0
2017-Oct-15 04:00N 51°31' E 000°59'0 0.0
2017-Oct-15 03:31N 51°31' E 000°59'0 0.0
2017-Oct-15 03:00N 51°31' E 000°59'0 0.0
2017-Oct-15 02:29N 51°31' E 000°59'0 0.1
2017-Oct-15 01:57N 51°31' E 000°59'0 0.0
2017-Oct-15 01:09N 51°31' E 000°59'0 0.0
2017-Oct-15 01:01N 51°31' E 000°59'0 0.0
2017-Oct-15 00:30N 51°31' E 000°59'0 0.0
2017-Oct-15 00:00N 51°31' E 000°59'0 0.0
2017-Oct-14 23:30N 51°31' E 000°59'0 0.0
2017-Oct-14 22:47N 51°31' E 000°59'0 0.0
2017-Oct-14 22:26N 51°31' E 000°59'0 0.0
2017-Oct-14 22:00N 51°31' E 000°59'0 0.0
2017-Oct-14 21:22N 51°31' E 000°59'0 0.0
2017-Oct-14 21:00N 51°31' E 000°59'0 0.0
2017-Oct-14 20:29N 51°31' E 000°59'0 0.0
2017-Oct-14 19:56N 51°31' E 000°59'0 0.1
2017-Oct-14 19:30N 51°31' E 000°59'0 0.1
2017-Oct-14 18:58N 51°31' E 000°59'0 0.0
2017-Oct-14 18:29N 51°31' E 000°59'2 0.9
2017-Oct-14 16:12N 51°29' E 000°57'212.2
2017-Oct-14 16:00N 51°29' E 001°00'612.1
2017-Oct-14 15:30N 51°29' E 001°10'612.1
2017-Oct-14 15:01N 51°29' E 001°20'611.6
2017-Oct-14 14:30N 51°29' E 001°29'510.9
2017-Oct-14 14:00N 51°30' E 001°37'611.3
2017-Oct-14 13:30N 51°34' E 001°45'611.0
2017-Oct-14 13:00N 51°37' E 001°52'510.8
2017-Oct-14 12:30N 51°41' E 001°58'510.4
2017-Oct-14 12:00N 51°44' E 002°05'5 9.9
2017-Oct-14 11:30N 51°47' E 002°11'30 9.5
2017-Oct-14 08:23N 52°05' E 002°49'5 9.5
2017-Oct-14 07:52N 52°08' E 002°55'1210.0
2017-Oct-14 06:39N 52°15' E 003°12'510.6
2017-Oct-14 06:13N 52°17' E 003°18'510.8
2017-Oct-14 05:46N 52°20' E 003°25'1510.9
2017-Oct-14 04:26N 52°28' E 003°45'510.9
2017-Oct-14 04:00N 52°31' E 003°51'510.7
2017-Oct-14 03:31N 52°31' E 003°60'510.7
2017-Oct-14 03:01N 52°31' E 004°09'510.7
2017-Oct-14 02:31N 52°30' E 004°17'5 9.9
2017-Oct-14 02:01N 52°29' E 004°25'5 9.8
2017-Oct-14 01:30N 52°28' E 004°33'2 4.4
2017-Oct-14 01:00N 52°28' E 004°37'2 4.4
2017-Oct-14 00:30N 52°28' E 004°40'5 9.6
2017-Oct-14 00:00N 52°26' E 004°47'2 4.3
2017-Oct-13 23:30N 52°24' E 004°49'0 0.0
2017-Oct-13 23:00N 52°24' E 004°49'0 0.0
2017-Oct-13 22:30N 52°24' E 004°49'0 0.0
2017-Oct-13 22:01N 52°24' E 004°49'0 0.0
2017-Oct-13 21:31N 52°24' E 004°49'0 0.0
2017-Oct-13 21:01N 52°24' E 004°49'0 0.0
2017-Oct-13 20:31N 52°24' E 004°49'0 0.0
2017-Oct-13 20:00N 52°24' E 004°49'0 0.0
2017-Oct-13 19:31N 52°24' E 004°49'0 0.0
2017-Oct-13 19:00N 52°24' E 004°49'0 0.0
2017-Oct-13 18:30N 52°24' E 004°49'0 0.0
2017-Oct-13 18:00N 52°24' E 004°49'0 0.0
2017-Oct-13 17:30N 52°24' E 004°49'0 0.0
2017-Oct-13 17:01N 52°24' E 004°49'0 0.0
2017-Oct-13 16:30N 52°24' E 004°49'0 0.0
2017-Oct-13 16:01N 52°24' E 004°49'0 0.0
2017-Oct-13 15:30N 52°24' E 004°49'0 0.0
2017-Oct-13 15:00N 52°24' E 004°49'0 0.0
2017-Oct-13 14:30N 52°24' E 004°49'0 0.0
2017-Oct-13 14:01N 52°24' E 004°49'0 0.0
2017-Oct-13 13:30N 52°24' E 004°49'0 0.0
2017-Oct-13 13:00N 52°24' E 004°49'0 0.0
2017-Oct-13 12:30N 52°24' E 004°49'0 0.0
2017-Oct-13 12:01N 52°24' E 004°49'0 0.0
2017-Oct-13 11:30N 52°24' E 004°49'0 0.0
2017-Oct-13 11:01N 52°24' E 004°49'0 0.0
2017-Oct-13 10:30N 52°24' E 004°49'0 0.0
2017-Oct-13 10:01N 52°24' E 004°49'0 0.0
2017-Oct-13 09:31N 52°24' E 004°49'0 0.0
2017-Oct-13 09:00N 52°24' E 004°49'0 0.0
2017-Oct-13 08:30N 52°24' E 004°49'0 0.0
2017-Oct-13 08:00N 52°24' E 004°49'0 0.0
2017-Oct-13 07:31N 52°24' E 004°49'0 0.0
2017-Oct-13 07:00N 52°24' E 004°49'0 0.0
2017-Oct-13 06:31N 52°24' E 004°49'0 0.0
2017-Oct-13 06:00N 52°24' E 004°49'0 0.0
2017-Oct-13 05:31N 52°24' E 004°49'0 0.0
2017-Oct-13 05:00N 52°24' E 004°49'0 0.0
2017-Oct-13 04:30N 52°24' E 004°49'0 0.0
2017-Oct-13 04:00N 52°24' E 004°49'0 0.0
2017-Oct-13 03:30N 52°24' E 004°49'0 0.0
2017-Oct-13 03:00N 52°24' E 004°49'0 0.0
2017-Oct-13 02:30N 52°24' E 004°49'0 0.0
2017-Oct-13 02:00N 52°24' E 004°49'0 0.0
2017-Oct-13 01:31N 52°24' E 004°49'0 0.0
2017-Oct-13 01:00N 52°24' E 004°49'0 0.0
2017-Oct-13 00:31N 52°24' E 004°49'0 0.0
2017-Oct-13 00:00N 52°24' E 004°49'0 0.0
2017-Oct-12 23:30N 52°24' E 004°49'0 0.0
2017-Oct-12 23:00N 52°24' E 004°49'0 0.0
2017-Oct-12 22:30N 52°24' E 004°49'0 0.0
2017-Oct-12 22:01N 52°24' E 004°49'0 0.0
2017-Oct-12 21:30N 52°24' E 004°49'0 0.0
2017-Oct-12 21:00N 52°24' E 004°49'0 0.0
2017-Oct-12 20:31N 52°24' E 004°49'0 0.0
2017-Oct-12 20:01N 52°24' E 004°49'0 0.0
2017-Oct-12 19:30N 52°24' E 004°49'0 0.0
2017-Oct-12 19:00N 52°24' E 004°49'0 0.0
2017-Oct-12 18:30N 52°24' E 004°49'0 0.0
2017-Oct-12 18:00N 52°24' E 004°49'0 0.0
2017-Oct-12 17:30N 52°24' E 004°49'0 0.0
2017-Oct-12 17:00N 52°24' E 004°49'0 0.0
2017-Oct-12 16:31N 52°24' E 004°49'0 0.0
2017-Oct-12 16:00N 52°24' E 004°49'0 0.0
2017-Oct-12 15:30N 52°24' E 004°49'0 0.0
2017-Oct-12 15:00N 52°24' E 004°49'0 0.0
2017-Oct-12 14:31N 52°24' E 004°49'0 0.0
2017-Oct-12 14:00N 52°24' E 004°49'0 0.0
2017-Oct-12 13:30N 52°24' E 004°49'0 0.0
2017-Oct-12 13:00N 52°24' E 004°49'0 0.0
2017-Oct-12 12:31N 52°24' E 004°49'0 0.0
2017-Oct-12 12:00N 52°24' E 004°49'0 0.0
2017-Oct-12 11:31N 52°24' E 004°49'0 0.0
2017-Oct-12 11:00N 52°24' E 004°49'0 0.0
2017-Oct-12 10:31N 52°24' E 004°49'0 0.0
2017-Oct-12 10:00N 52°24' E 004°49'0 0.0
2017-Oct-12 09:30N 52°24' E 004°49'0 0.0
2017-Oct-12 09:00N 52°24' E 004°49'0 0.0
2017-Oct-12 08:30N 52°24' E 004°49'0 0.0
2017-Oct-12 08:00N 52°24' E 004°49'0 0.0
2017-Oct-12 07:30N 52°24' E 004°49'0 0.0
2017-Oct-12 07:00N 52°24' E 004°49'0 0.0
2017-Oct-12 06:30N 52°24' E 004°49'0 0.0
2017-Oct-12 06:00N 52°24' E 004°49'0 0.0
2017-Oct-12 05:30N 52°24' E 004°49'0 0.0
2017-Oct-12 05:00N 52°24' E 004°49'0 0.0
2017-Oct-12 04:30N 52°24' E 004°49'0 0.0
2017-Oct-12 04:00N 52°24' E 004°49'0 0.0
2017-Oct-12 03:30N 52°24' E 004°49'0 0.0
2017-Oct-12 03:00N 52°24' E 004°49'0 0.0
2017-Oct-12 02:31N 52°24' E 004°49'0 0.0
2017-Oct-12 02:00N 52°24' E 004°49'0 0.0
2017-Oct-12 01:31N 52°24' E 004°49'0 0.0
2017-Oct-12 01:01N 52°24' E 004°49'0 0.0
2017-Oct-12 00:31N 52°24' E 004°49'0 0.0
2017-Oct-12 00:01N 52°24' E 004°49'0 0.0
2017-Oct-11 23:30N 52°24' E 004°49'0 0.0
2017-Oct-11 23:01N 52°24' E 004°49'0 0.0
2017-Oct-11 22:30N 52°24' E 004°49'0 0.0
2017-Oct-11 22:01N 52°24' E 004°49'0 0.0
2017-Oct-11 21:31N 52°24' E 004°49'0 0.0
2017-Oct-11 21:01N 52°24' E 004°49'0 0.0
2017-Oct-11 20:31N 52°24' E 004°49'0 0.0
2017-Oct-11 20:01N 52°24' E 004°49'0 0.0
2017-Oct-11 19:30N 52°24' E 004°49'0 0.0
2017-Oct-11 19:00N 52°24' E 004°49'0 0.0
2017-Oct-11 18:31N 52°24' E 004°49'0 0.0
2017-Oct-11 18:01N 52°24' E 004°49'0 0.0
2017-Oct-11 17:30N 52°24' E 004°49'0 0.0
2017-Oct-11 17:00N 52°24' E 004°49'52 2.7
2017-Oct-10 21:23N 53°15' E 004°28'3 8.4
2017-Oct-10 20:59N 53°18' E 004°30'4 8.3
2017-Oct-10 20:29N 53°22' E 004°32'4 8.2
2017-Oct-10 19:59N 53°26' E 004°34'4 8.0
2017-Oct-10 19:27N 53°30' E 004°37'4 8.4
2017-Oct-10 18:55N 53°31' E 004°44'4 8.5
2017-Oct-10 18:29N 53°32' E 004°50'4 9.0
2017-Oct-10 18:00N 53°33' E 004°57'103 9.6
2017-Oct-10 07:18N 54°02' E 007°44'311.1
2017-Oct-10 07:00N 54°02' E 007°49'611.1
2017-Oct-10 06:30N 54°01' E 007°59'611.2
2017-Oct-10 06:00N 54°01' E 008°08'510.4
2017-Oct-10 05:30N 54°00' E 008°17'713.1
2017-Oct-10 05:00N 53°59' E 008°28'612.4
2017-Oct-10 04:30N 53°57' E 008°38'611.1
2017-Oct-10 04:00N 53°53' E 008°43'5 9.1
2017-Oct-10 03:30N 53°50' E 008°50'4 8.4
2017-Oct-10 03:00N 53°51' E 008°57'4 8.1
2017-Oct-10 02:30N 53°52' E 009°04'3 6.5
2017-Oct-10 02:00N 53°54' E 009°09'0 0.1
2017-Oct-10 01:31N 53°54' E 009°09'2 4.1
2017-Oct-10 01:00N 53°55' E 009°11'  
Track history (hours):
 
Tides and Currents Weather Stations Pressure Air Temp Water Temp Dewpoint Dewpoint Depression Visibility Wind Speed Wind Dir Waves Ship Positions

Ina Lehmann

Last reported at 2017-Oct-20 01:00 UTC. Time now 2017-Oct-20 14:29 UTC.
Position N 56°42' E 017°16'.

Length 90 m; draft 4.9 m.

Type: Cargo ship. MMSI: 304585000.

Date/timePositionNaut miles runAvg speedWind from/ knotsBaromVisibWave heightAir tempDewpointWater temp
2017-Oct-20 01:00N 56°42' E 017°16'2510.6
2017-Oct-19 22:41N 56°19' E 016°59'210.6
2017-Oct-19 22:30N 56°18' E 016°58'1410.5
2017-Oct-19 21:11N 56°05' E 016°49'310.2
2017-Oct-19 20:55N 56°04' E 016°45'410.2
2017-Oct-19 20:30N 56°02' E 016°38'510.2
2017-Oct-19 20:00N 55°59' E 016°30'5 9.9
2017-Oct-19 19:30N 55°57' E 016°22'5 9.8
2017-Oct-19 19:00N 55°54' E 016°15'5 9.8
2017-Oct-19 18:31N 55°52' E 016°07'5 9.5
2017-Oct-19 18:00N 55°50' E 015°60'5 9.7
2017-Oct-19 17:30N 55°47' E 015°52'5 9.7
2017-Oct-19 17:00N 55°45' E 015°45'510.0
2017-Oct-19 16:30N 55°43' E 015°37'5 9.9
2017-Oct-19 16:00N 55°40' E 015°29'5 9.9
2017-Oct-19 15:30N 55°38' E 015°21'5 9.8
2017-Oct-19 15:00N 55°36' E 015°14'510.0
2017-Oct-19 14:30N 55°33' E 015°06'1810.3
2017-Oct-19 12:45N 55°24' E 014°39'310.3
2017-Oct-19 12:29N 55°22' E 014°36'810.3
2017-Oct-19 11:44N 55°16' E 014°27'510.5
2017-Oct-19 11:16N 55°12' E 014°21'310.6
2017-Oct-19 10:58N 55°09' E 014°18'5010.6
2017-Oct-19 06:17N 54°48' E 012°59'310.9
2017-Oct-19 06:00N 54°48' E 012°54'510.9
2017-Oct-19 05:30N 54°46' E 012°45'1411.4
2017-Oct-19 04:17N 54°38' E 012°25'311.6
2017-Oct-19 04:00N 54°36' E 012°21'510.8
2017-Oct-19 03:30N 54°31' E 012°16'611.3
2017-Oct-19 03:00N 54°26' E 012°12'510.0
2017-Oct-19 02:31N 54°25' E 012°04'510.6
2017-Oct-19 02:00N 54°25' E 011°55'73 8.1
2017-Oct-18 17:00N 54°22' E 009°50'4 8.3
2017-Oct-18 16:30N 54°20' E 009°44'4 7.9
2017-Oct-18 16:00N 54°17' E 009°39'4 8.4
2017-Oct-18 15:30N 54°13' E 009°36'4 8.6
2017-Oct-18 15:00N 54°11' E 009°30'8 7.6
2017-Oct-18 13:56N 54°05' E 009°20'4 8.6
2017-Oct-18 13:30N 54°02' E 009°18'4 8.1
2017-Oct-18 13:00N 53°58' E 009°15'4 8.7
2017-Oct-18 12:30N 53°55' E 009°11'2 3.3
2017-Oct-18 12:00N 53°54' E 009°09'1 2.0
2017-Oct-18 11:30N 53°53' E 009°07'1 1.6
2017-Oct-18 11:00N 53°53' E 009°06'0 0.0
2017-Oct-18 10:30N 53°53' E 009°06'0 0.1
2017-Oct-18 10:01N 53°53' E 009°06'5 9.3
2017-Oct-18 09:30N 53°51' E 008°59'714.3
2017-Oct-18 09:01N 53°51' E 008°47'713.8
2017-Oct-18 08:30N 53°56' E 008°39'714.0
2017-Oct-18 07:59N 53°59' E 008°28'12410.5
2017-Oct-17 20:08N 53°29' E 005°04'111.0
2017-Oct-17 20:00N 53°28' E 005°02'611.1
2017-Oct-17 19:29N 53°26' E 004°53'5710.9
2017-Oct-17 14:17N 52°39' E 003°58'611.8
2017-Oct-17 13:47N 52°35' E 003°52'711.9
2017-Oct-17 13:15N 52°31' E 003°44'312.0
2017-Oct-17 12:59N 52°29' E 003°40'812.1
2017-Oct-17 12:18N 52°23' E 003°30'412.2
2017-Oct-17 11:59N 52°20' E 003°26'1312.2
2017-Oct-17 10:57N 52°10' E 003°13'1911.3
2017-Oct-17 09:15N 51°57' E 002°50'22 9.4
2017-Oct-17 06:55N 51°47' E 002°18'4 9.7
2017-Oct-17 06:27N 51°45' E 002°13'4 9.6
2017-Oct-17 06:00N 51°42' E 002°07'5 9.7
2017-Oct-17 05:30N 51°40' E 002°00'5 9.8
2017-Oct-17 05:00N 51°37' E 001°54'510.7
2017-Oct-17 04:30N 51°34' E 001°46'611.1
2017-Oct-17 04:00N 51°31' E 001°39'611.1
2017-Oct-17 03:30N 51°29' E 001°31'612.4
2017-Oct-17 03:00N 51°28' E 001°21'612.7
2017-Oct-17 02:30N 51°29' E 001°11'612.4
2017-Oct-17 02:00N 51°29' E 001°01'5 0.1
2017-Oct-15 08:36N 51°30' E 000°53'111.2
2017-Oct-15 08:29N 51°30' E 000°55'3 4.9
2017-Oct-15 07:58N 51°31' E 000°59'0 0.1
2017-Oct-15 07:30N 51°31' E 000°59'0 0.0
2017-Oct-15 06:52N 51°31' E 000°59'0 0.0
2017-Oct-15 06:30N 51°31' E 000°59'0 0.0
2017-Oct-15 05:58N 51°31' E 000°59'0 0.0
2017-Oct-15 05:30N 51°31' E 000°59'0 0.0
2017-Oct-15 04:59N 51°31' E 000°59'0 0.0
2017-Oct-15 04:29N 51°31' E 000°59'0 0.0
2017-Oct-15 04:00N 51°31' E 000°59'0 0.0
2017-Oct-15 03:31N 51°31' E 000°59'0 0.0
2017-Oct-15 03:00N 51°31' E 000°59'0 0.0
2017-Oct-15 02:29N 51°31' E 000°59'0 0.1
2017-Oct-15 01:57N 51°31' E 000°59'0 0.0
2017-Oct-15 01:09N 51°31' E 000°59'0 0.0
2017-Oct-15 01:01N 51°31' E 000°59'0 0.0
2017-Oct-15 00:30N 51°31' E 000°59'0 0.0
2017-Oct-15 00:00N 51°31' E 000°59'0 0.0
2017-Oct-14 23:30N 51°31' E 000°59'0 0.0
2017-Oct-14 22:47N 51°31' E 000°59'0 0.0
2017-Oct-14 22:26N 51°31' E 000°59'0 0.0
2017-Oct-14 22:00N 51°31' E 000°59'0 0.0
2017-Oct-14 21:22N 51°31' E 000°59'0 0.0
2017-Oct-14 21:00N 51°31' E 000°59'0 0.0
2017-Oct-14 20:29N 51°31' E 000°59'0 0.0
2017-Oct-14 19:56N 51°31' E 000°59'0 0.1
2017-Oct-14 19:30N 51°31' E 000°59'0 0.1
2017-Oct-14 18:58N 51°31' E 000°59'0 0.0
2017-Oct-14 18:29N 51°31' E 000°59'2 0.9
2017-Oct-14 16:12N 51°29' E 000°57'212.2
2017-Oct-14 16:00N 51°29' E 001°00'612.1
2017-Oct-14 15:30N 51°29' E 001°10'612.1
2017-Oct-14 15:01N 51°29' E 001°20'611.6
2017-Oct-14 14:30N 51°29' E 001°29'510.9
2017-Oct-14 14:00N 51°30' E 001°37'611.3
2017-Oct-14 13:30N 51°34' E 001°45'611.0
2017-Oct-14 13:00N 51°37' E 001°52'510.8
2017-Oct-14 12:30N 51°41' E 001°58'510.4
2017-Oct-14 12:00N 51°44' E 002°05'5 9.9
2017-Oct-14 11:30N 51°47' E 002°11'30 9.5
2017-Oct-14 08:23N 52°05' E 002°49'5 9.5
2017-Oct-14 07:52N 52°08' E 002°55'1210.0
2017-Oct-14 06:39N 52°15' E 003°12'510.6
2017-Oct-14 06:13N 52°17' E 003°18'510.8
2017-Oct-14 05:46N 52°20' E 003°25'1510.9
2017-Oct-14 04:26N 52°28' E 003°45'510.9
2017-Oct-14 04:00N 52°31' E 003°51'510.7
2017-Oct-14 03:31N 52°31' E 003°60'510.7
2017-Oct-14 03:01N 52°31' E 004°09'510.7
2017-Oct-14 02:31N 52°30' E 004°17'5 9.9
2017-Oct-14 02:01N 52°29' E 004°25'5 9.8
2017-Oct-14 01:30N 52°28' E 004°33'2 4.4
2017-Oct-14 01:00N 52°28' E 004°37'2 4.4
2017-Oct-14 00:30N 52°28' E 004°40'5 9.6
2017-Oct-14 00:00N 52°26' E 004°47'2 4.3
2017-Oct-13 23:30N 52°24' E 004°49'0 0.0
2017-Oct-13 23:00N 52°24' E 004°49'0 0.0
2017-Oct-13 22:30N 52°24' E 004°49'0 0.0
2017-Oct-13 22:01N 52°24' E 004°49'0 0.0
2017-Oct-13 21:31N 52°24' E 004°49'0 0.0
2017-Oct-13 21:01N 52°24' E 004°49'0 0.0
2017-Oct-13 20:31N 52°24' E 004°49'0 0.0
2017-Oct-13 20:00N 52°24' E 004°49'0 0.0
2017-Oct-13 19:31N 52°24' E 004°49'0 0.0
2017-Oct-13 19:00N 52°24' E 004°49'0 0.0
2017-Oct-13 18:30N 52°24' E 004°49'0 0.0
2017-Oct-13 18:00N 52°24' E 004°49'0 0.0
2017-Oct-13 17:30N 52°24' E 004°49'0 0.0
2017-Oct-13 17:01N 52°24' E 004°49'0 0.0
2017-Oct-13 16:30N 52°24' E 004°49'0 0.0
2017-Oct-13 16:01N 52°24' E 004°49'0 0.0
2017-Oct-13 15:30N 52°24' E 004°49'0 0.0
2017-Oct-13 15:00N 52°24' E 004°49'0 0.0
2017-Oct-13 14:30N 52°24' E 004°49'0 0.0
2017-Oct-13 14:01N 52°24' E 004°49'0 0.0
2017-Oct-13 13:30N 52°24' E 004°49'0 0.0
2017-Oct-13 13:00N 52°24' E 004°49'0 0.0
2017-Oct-13 12:30N 52°24' E 004°49'0 0.0
2017-Oct-13 12:01N 52°24' E 004°49'0 0.0
2017-Oct-13 11:30N 52°24' E 004°49'0 0.0
2017-Oct-13 11:01N 52°24' E 004°49'0 0.0
2017-Oct-13 10:30N 52°24' E 004°49'0 0.0
2017-Oct-13 10:01N 52°24' E 004°49'0 0.0
2017-Oct-13 09:31N 52°24' E 004°49'0 0.0
2017-Oct-13 09:00N 52°24' E 004°49'0 0.0
2017-Oct-13 08:30N 52°24' E 004°49'0 0.0
2017-Oct-13 08:00N 52°24' E 004°49'0 0.0
2017-Oct-13 07:31N 52°24' E 004°49'0 0.0
2017-Oct-13 07:00N 52°24' E 004°49'0 0.0
2017-Oct-13 06:31N 52°24' E 004°49'0 0.0
2017-Oct-13 06:00N 52°24' E 004°49'0 0.0
2017-Oct-13 05:31N 52°24' E 004°49'0 0.0
2017-Oct-13 05:00N 52°24' E 004°49'0 0.0
2017-Oct-13 04:30N 52°24' E 004°49'0 0.0
2017-Oct-13 04:00N 52°24' E 004°49'0 0.0
2017-Oct-13 03:30N 52°24' E 004°49'0 0.0
2017-Oct-13 03:00N 52°24' E 004°49'0 0.0
2017-Oct-13 02:30N 52°24' E 004°49'0 0.0
2017-Oct-13 02:00N 52°24' E 004°49'0 0.0
2017-Oct-13 01:31N 52°24' E 004°49'0 0.0
2017-Oct-13 01:00N 52°24' E 004°49'0 0.0
2017-Oct-13 00:31N 52°24' E 004°49'0 0.0
2017-Oct-13 00:00N 52°24' E 004°49'0 0.0
2017-Oct-12 23:30N 52°24' E 004°49'0 0.0
2017-Oct-12 23:00N 52°24' E 004°49'0 0.0
2017-Oct-12 22:30N 52°24' E 004°49'0 0.0
2017-Oct-12 22:01N 52°24' E 004°49'0 0.0
2017-Oct-12 21:30N 52°24' E 004°49'0 0.0
2017-Oct-12 21:00N 52°24' E 004°49'0 0.0
2017-Oct-12 20:31N 52°24' E 004°49'0 0.0
2017-Oct-12 20:01N 52°24' E 004°49'0 0.0
2017-Oct-12 19:30N 52°24' E 004°49'0 0.0
2017-Oct-12 19:00N 52°24' E 004°49'0 0.0
2017-Oct-12 18:30N 52°24' E 004°49'0 0.0
2017-Oct-12 18:00N 52°24' E 004°49'0 0.0
2017-Oct-12 17:30N 52°24' E 004°49'0 0.0
2017-Oct-12 17:00N 52°24' E 004°49'0 0.0
2017-Oct-12 16:31N 52°24' E 004°49'0 0.0
2017-Oct-12 16:00N 52°24' E 004°49'0 0.0
2017-Oct-12 15:30N 52°24' E 004°49'0 0.0
2017-Oct-12 15:00N 52°24' E 004°49'0 0.0
2017-Oct-12 14:31N 52°24' E 004°49'0 0.0
2017-Oct-12 14:00N 52°24' E 004°49'0 0.0
2017-Oct-12 13:30N 52°24' E 004°49'0 0.0
2017-Oct-12 13:00N 52°24' E 004°49'0 0.0
2017-Oct-12 12:31N 52°24' E 004°49'0 0.0
2017-Oct-12 12:00N 52°24' E 004°49'0 0.0
2017-Oct-12 11:31N 52°24' E 004°49'0 0.0
2017-Oct-12 11:00N 52°24' E 004°49'0 0.0
2017-Oct-12 10:31N 52°24' E 004°49'0 0.0
2017-Oct-12 10:00N 52°24' E 004°49'0 0.0
2017-Oct-12 09:30N 52°24' E 004°49'0 0.0
2017-Oct-12 09:00N 52°24' E 004°49'0 0.0
2017-Oct-12 08:30N 52°24' E 004°49'0 0.0
2017-Oct-12 08:00N 52°24' E 004°49'0 0.0
2017-Oct-12 07:30N 52°24' E 004°49'0 0.0
2017-Oct-12 07:00N 52°24' E 004°49'0 0.0
2017-Oct-12 06:30N 52°24' E 004°49'0 0.0
2017-Oct-12 06:00N 52°24' E 004°49'0 0.0
2017-Oct-12 05:30N 52°24' E 004°49'0 0.0
2017-Oct-12 05:00N 52°24' E 004°49'0 0.0
2017-Oct-12 04:30N 52°24' E 004°49'0 0.0
2017-Oct-12 04:00N 52°24' E 004°49'0 0.0
2017-Oct-12 03:30N 52°24' E 004°49'0 0.0
2017-Oct-12 03:00N 52°24' E 004°49'0 0.0
2017-Oct-12 02:31N 52°24' E 004°49'0 0.0
2017-Oct-12 02:00N 52°24' E 004°49'0 0.0
2017-Oct-12 01:31N 52°24' E 004°49'0 0.0
2017-Oct-12 01:01N 52°24' E 004°49'0 0.0
2017-Oct-12 00:31N 52°24' E 004°49'0 0.0
2017-Oct-12 00:01N 52°24' E 004°49'0 0.0
2017-Oct-11 23:30N 52°24' E 004°49'0 0.0
2017-Oct-11 23:01N 52°24' E 004°49'0 0.0
2017-Oct-11 22:30N 52°24' E 004°49'0 0.0
2017-Oct-11 22:01N 52°24' E 004°49'0 0.0
2017-Oct-11 21:31N 52°24' E 004°49'0 0.0
2017-Oct-11 21:01N 52°24' E 004°49'0 0.0
2017-Oct-11 20:31N 52°24' E 004°49'0 0.0
2017-Oct-11 20:01N 52°24' E 004°49'0 0.0
2017-Oct-11 19:30N 52°24' E 004°49'0 0.0
2017-Oct-11 19:00N 52°24' E 004°49'0 0.0
2017-Oct-11 18:31N 52°24' E 004°49'0 0.0
2017-Oct-11 18:01N 52°24' E 004°49'0 0.0
2017-Oct-11 17:30N 52°24' E 004°49'0 0.0
2017-Oct-11 17:00N 52°24' E 004°49'52 2.7
2017-Oct-10 21:23N 53°15' E 004°28'3 8.4
2017-Oct-10 20:59N 53°18' E 004°30'4 8.3
2017-Oct-10 20:29N 53°22' E 004°32'4 8.2
2017-Oct-10 19:59N 53°26' E 004°34'4 8.0
2017-Oct-10 19:27N 53°30' E 004°37'4 8.4
2017-Oct-10 18:55N 53°31' E 004°44'4 8.5
2017-Oct-10 18:29N 53°32' E 004°50'4 9.0
2017-Oct-10 18:00N 53°33' E 004°57'103 9.6
2017-Oct-10 07:18N 54°02' E 007°44'311.1
2017-Oct-10 07:00N 54°02' E 007°49'611.1
2017-Oct-10 06:30N 54°01' E 007°59'611.2
2017-Oct-10 06:00N 54°01' E 008°08'510.4
2017-Oct-10 05:30N 54°00' E 008°17'713.1
2017-Oct-10 05:00N 53°59' E 008°28'612.4
2017-Oct-10 04:30N 53°57' E 008°38'611.1
2017-Oct-10 04:00N 53°53' E 008°43'5 9.1
2017-Oct-10 03:30N 53°50' E 008°50'4 8.4
2017-Oct-10 03:00N 53°51' E 008°57'4 8.1
2017-Oct-10 02:30N 53°52' E 009°04'3 6.5
2017-Oct-10 02:00N 53°54' E 009°09'0 0.1
2017-Oct-10 01:31N 53°54' E 009°09'2 4.1
2017-Oct-10 01:00N 53°55' E 009°11'  

Dump ship's entire track history